Warren, RI (02885)

7:33 AM EDT on October 23, 2014 (GMT -0400)
South of Downtown Warren | Change Station
CLOSE
Current Station
Personal Weather Station
Location: Warren, RI
Elevation: 47 ft
Nearby Weather Stations

Elev 47 ft 41.72 °N, 71.28 °W | Updated 6 seconds ago

Rain
Rain
53.2 °F
Feels Like 53.2 °F
N
4.9
Wind Variable Wind from ENE
Gusts 17.0 mph

Today
High -- | Low -- °F
--% Chance of Precip.
Yesterday
High -- | Low -- °F
Precip. -- in
7:06 AM 5:51 PM
Waning Crescent, 0% visible
Pressure 29.58 in
Visibility 10.0 miles
Clouds Overcast 1100 ft
Dew Point 52 °F
Humidity 95%
Rainfall 0.11 in
Snow Depth Not available.
UV 0.0 out of 12
Pollen .10 out of 12
PM2.5 Good
Flu Activity No Activity
METAR KPVD 231051Z 01024G34KT 10SM -RA OVC011 12/09 A2957 RMK AO2 PK WND 01035/1041 RAE11B42 PRESFR SLP015 P0000 T01170094

More Conditions Fewer Conditions

Pressure 29.58 in
Visibility 10.0 miles
Clouds Overcast 1100 ft
Dew Point 52 °F
Humidity 95%
Rainfall 0.11 in
Snow Depth Not available.
UV 0.0 out of 12
Pollen .10 out of 12
PM2.5 Good
Flu Activity No Activity
METAR KPVD 231051Z 01024G34KT 10SM -RA OVC011 12/09 A2957 RMK AO2 PK WND 01035/1041 RAE11B42 PRESFR SLP015 P0000 T01170094

More Conditions Fewer Conditions

10-Day Weather Forecast

Almanac

Astronomy

Oct. 23, 2014 Rise Set
Actual Time 7:06 AM EDT 5:51 PM EDT
Civil Twilight 6:38 AM EDT 6:20 PM EDT
Nautical Twilight 6:05 AM EDT 6:52 PM EDT
Astronomical Twilight 5:33 AM EDT 7:24 PM EDT
Moon 6:42 AM EDT 5:51 PM EDT
Length of Visible Light 11h 42m
Length of Day
10h 45m
Tomorrow will be 2m 36s shorter.
Waning Crescent, 0% of the Moon is Illuminated
Today
Waning Crescent
Oct 23
New
Oct 30
First Quarter
Nov 6
Full
Nov 14
Last Quarter

Today's Extremes

State Highs State Lows

Community

WunderPhotos

Upload Photos

1,764,209 photos uploaded!

Nearby

Air Quality

  Air Quality AQ Index Pollutant
Yesterday Good
OZONE
Yesterday Good
PM2.5
Current Good
PM2.5
Thursday Good
PM2.5

Snow Depth

Station Depth Elevation
No new snow has been reported.

Earthquake Activity

City Distance Mag. Time & Date
No recent earthquake activity has been reported nearby.
Minimum magnitude displayed is 2.5.

Coastal Water Temperatures

Place Temperature
Newport, RI 61.0 °F
Quonset Point, RI 60.1 °F
Conimicut Light, RI 61.0 °F

Nearby Weather Stations